sensor_id;sensor_type;location;lat;lon;timestamp;P1;durP1;ratioP1;P2;durP2;ratioP2
44850;SDS011;30583;48.714;9.386;2023-12-14T00:00:43;3.03;;;1.42;;
44850;SDS011;30583;48.714;9.386;2023-12-14T00:03:08;3.30;;;1.67;;
44850;SDS011;30583;48.714;9.386;2023-12-14T00:05:34;3.05;;;1.67;;
44850;SDS011;30583;48.714;9.386;2023-12-14T00:08:00;2.42;;;1.50;;
44850;SDS011;30583;48.714;9.386;2023-12-14T00:10:26;3.90;;;1.73;;
44850;SDS011;30583;48.714;9.386;2023-12-14T00:12:51;3.03;;;1.77;;
44850;SDS011;30583;48.714;9.386;2023-12-14T00:15:19;4.75;;;2.05;;
44850;SDS011;30583;48.714;9.386;2023-12-14T00:17:45;3.50;;;2.00;;
44850;SDS011;30583;48.714;9.386;2023-12-14T00:20:10;3.25;;;1.80;;
44850;SDS011;30583;48.714;9.386;2023-12-14T00:22:36;4.07;;;2.08;;
44850;SDS011;30583;48.714;9.386;2023-12-14T00:25:03;3.30;;;1.98;;
44850;SDS011;30583;48.714;9.386;2023-12-14T00:27:29;3.15;;;1.58;;
44850;SDS011;30583;48.714;9.386;2023-12-14T00:29:54;2.78;;;1.60;;
44850;SDS011;30583;48.714;9.386;2023-12-14T00:32:20;2.78;;;1.88;;
44850;SDS011;30583;48.714;9.386;2023-12-14T00:34:46;3.03;;;1.67;;
44850;SDS011;30583;48.714;9.386;2023-12-14T00:37:11;2.38;;;1.70;;
44850;SDS011;30583;48.714;9.386;2023-12-14T00:39:37;3.67;;;1.80;;
44850;SDS011;30583;48.714;9.386;2023-12-14T00:42:02;2.42;;;1.63;;
44850;SDS011;30583;48.714;9.386;2023-12-14T00:44:28;3.10;;;1.73;;
44850;SDS011;30583;48.714;9.386;2023-12-14T00:46:54;2.88;;;1.90;;
44850;SDS011;30583;48.714;9.386;2023-12-14T00:49:19;3.03;;;2.03;;
44850;SDS011;30583;48.714;9.386;2023-12-14T00:51:45;3.88;;;2.35;;
44850;SDS011;30583;48.714;9.386;2023-12-14T00:54:10;3.95;;;2.05;;
44850;SDS011;30583;48.714;9.386;2023-12-14T00:56:36;4.20;;;2.05;;
44850;SDS011;30583;48.714;9.386;2023-12-14T00:59:01;3.70;;;2.15;;
44850;SDS011;30583;48.714;9.386;2023-12-14T01:01:27;3.45;;;2.38;;
44850;SDS011;30583;48.714;9.386;2023-12-14T01:03:53;3.45;;;2.30;;
44850;SDS011;30583;48.714;9.386;2023-12-14T01:06:18;3.42;;;2.03;;
44850;SDS011;30583;48.714;9.386;2023-12-14T01:08:44;3.05;;;1.90;;
44850;SDS011;30583;48.714;9.386;2023-12-14T01:11:09;5.13;;;2.25;;
44850;SDS011;30583;48.714;9.386;2023-12-14T01:13:35;2.92;;;1.90;;
44850;SDS011;30583;48.714;9.386;2023-12-14T01:16:01;3.10;;;2.10;;
44850;SDS011;30583;48.714;9.386;2023-12-14T01:18:27;2.72;;;1.73;;
44850;SDS011;30583;48.714;9.386;2023-12-14T01:20:52;4.55;;;2.00;;
44850;SDS011;30583;48.714;9.386;2023-12-14T01:23:18;5.57;;;2.00;;
44850;SDS011;30583;48.714;9.386;2023-12-14T01:25:43;2.28;;;1.67;;
44850;SDS011;30583;48.714;9.386;2023-12-14T01:28:09;3.25;;;1.85;;
44850;SDS011;30583;48.714;9.386;2023-12-14T01:30:34;3.45;;;1.98;;
44850;SDS011;30583;48.714;9.386;2023-12-14T01:33:00;2.63;;;2.10;;
44850;SDS011;30583;48.714;9.386;2023-12-14T01:35:26;3.90;;;2.40;;
44850;SDS011;30583;48.714;9.386;2023-12-14T01:37:51;4.72;;;2.50;;
44850;SDS011;30583;48.714;9.386;2023-12-14T01:40:18;5.63;;;2.80;;
44850;SDS011;30583;48.714;9.386;2023-12-14T01:42:45;4.57;;;2.53;;
44850;SDS011;30583;48.714;9.386;2023-12-14T01:45:10;4.07;;;2.60;;
44850;SDS011;30583;48.714;9.386;2023-12-14T01:47:38;7.10;;;3.15;;
44850;SDS011;30583;48.714;9.386;2023-12-14T01:50:04;3.72;;;2.50;;
44850;SDS011;30583;48.714;9.386;2023-12-14T01:52:29;4.53;;;2.90;;
44850;SDS011;30583;48.714;9.386;2023-12-14T01:54:55;3.63;;;2.20;;
44850;SDS011;30583;48.714;9.386;2023-12-14T01:57:23;3.70;;;2.17;;
44850;SDS011;30583;48.714;9.386;2023-12-14T01:59:49;3.80;;;2.03;;
44850;SDS011;30583;48.714;9.386;2023-12-14T02:02:15;4.03;;;2.67;;
44850;SDS011;30583;48.714;9.386;2023-12-14T02:04:40;3.95;;;2.40;;
44850;SDS011;30583;48.714;9.386;2023-12-14T02:07:06;3.22;;;2.33;;
44850;SDS011;30583;48.714;9.386;2023-12-14T02:09:32;3.65;;;2.10;;
44850;SDS011;30583;48.714;9.386;2023-12-14T02:11:57;4.20;;;2.17;;
44850;SDS011;30583;48.714;9.386;2023-12-14T02:14:23;5.60;;;3.00;;
44850;SDS011;30583;48.714;9.386;2023-12-14T02:16:48;2.90;;;2.22;;
44850;SDS011;30583;48.714;9.386;2023-12-14T02:19:14;4.63;;;3.22;;
44850;SDS011;30583;48.714;9.386;2023-12-14T02:21:40;4.47;;;3.20;;
44850;SDS011;30583;48.714;9.386;2023-12-14T02:24:05;4.90;;;3.65;;
44850;SDS011;30583;48.714;9.386;2023-12-14T02:26:31;5.20;;;3.65;;
44850;SDS011;30583;48.714;9.386;2023-12-14T02:28:56;3.75;;;2.58;;
44850;SDS011;30583;48.714;9.386;2023-12-14T02:31:22;3.60;;;2.30;;
44850;SDS011;30583;48.714;9.386;2023-12-14T02:33:48;5.10;;;2.63;;
44850;SDS011;30583;48.714;9.386;2023-12-14T02:36:14;3.42;;;2.47;;
44850;SDS011;30583;48.714;9.386;2023-12-14T02:38:39;4.85;;;2.50;;
44850;SDS011;30583;48.714;9.386;2023-12-14T02:41:05;7.07;;;2.47;;
44850;SDS011;30583;48.714;9.386;2023-12-14T02:43:31;3.10;;;2.28;;
44850;SDS011;30583;48.714;9.386;2023-12-14T02:45:56;3.88;;;2.28;;
44850;SDS011;30583;48.714;9.386;2023-12-14T02:48:26;3.40;;;2.40;;
44850;SDS011;30583;48.714;9.386;2023-12-14T02:50:53;3.15;;;2.28;;
44850;SDS011;30583;48.714;9.386;2023-12-14T02:53:19;4.35;;;2.85;;
44850;SDS011;30583;48.714;9.386;2023-12-14T02:55:45;2.85;;;2.20;;
44850;SDS011;30583;48.714;9.386;2023-12-14T02:58:10;3.10;;;2.30;;
44850;SDS011;30583;48.714;9.386;2023-12-14T03:00:36;3.45;;;2.30;;
44850;SDS011;30583;48.714;9.386;2023-12-14T03:03:01;3.53;;;2.10;;
44850;SDS011;30583;48.714;9.386;2023-12-14T03:05:27;2.63;;;2.10;;
44850;SDS011;30583;48.714;9.386;2023-12-14T03:07:52;3.78;;;2.60;;
44850;SDS011;30583;48.714;9.386;2023-12-14T03:10:18;3.70;;;2.95;;
44850;SDS011;30583;48.714;9.386;2023-12-14T03:12:44;4.78;;;2.78;;
44850;SDS011;30583;48.714;9.386;2023-12-14T03:15:09;3.92;;;2.72;;
44850;SDS011;30583;48.714;9.386;2023-12-14T03:17:35;4.18;;;2.55;;
44850;SDS011;30583;48.714;9.386;2023-12-14T03:20:01;4.13;;;2.50;;
44850;SDS011;30583;48.714;9.386;2023-12-14T03:22:28;3.47;;;2.58;;
44850;SDS011;30583;48.714;9.386;2023-12-14T03:24:53;4.95;;;2.70;;
44850;SDS011;30583;48.714;9.386;2023-12-14T03:27:19;3.72;;;2.75;;
44850;SDS011;30583;48.714;9.386;2023-12-14T03:29:47;5.30;;;3.00;;
44850;SDS011;30583;48.714;9.386;2023-12-14T03:32:13;4.85;;;3.15;;
44850;SDS011;30583;48.714;9.386;2023-12-14T03:34:38;4.85;;;2.85;;
44850;SDS011;30583;48.714;9.386;2023-12-14T03:37:04;3.97;;;2.83;;
44850;SDS011;30583;48.714;9.386;2023-12-14T03:39:29;4.03;;;3.03;;
44850;SDS011;30583;48.714;9.386;2023-12-14T03:41:55;7.28;;;4.53;;
44850;SDS011;30583;48.714;9.386;2023-12-14T03:44:20;7.45;;;4.00;;
44850;SDS011;30583;48.714;9.386;2023-12-14T03:46:46;5.43;;;3.78;;
44850;SDS011;30583;48.714;9.386;2023-12-14T03:49:11;6.43;;;3.80;;
44850;SDS011;30583;48.714;9.386;2023-12-14T03:51:37;5.60;;;3.80;;
44850;SDS011;30583;48.714;9.386;2023-12-14T03:54:03;7.32;;;3.92;;
44850;SDS011;30583;48.714;9.386;2023-12-14T03:56:28;4.55;;;3.25;;
44850;SDS011;30583;48.714;9.386;2023-12-14T03:58:54;8.00;;;3.47;;
44850;SDS011;30583;48.714;9.386;2023-12-14T04:01:22;5.88;;;3.58;;
44850;SDS011;30583;48.714;9.386;2023-12-14T04:03:47;8.07;;;4.18;;
44850;SDS011;30583;48.714;9.386;2023-12-14T04:06:13;8.07;;;3.90;;
44850;SDS011;30583;48.714;9.386;2023-12-14T04:08:39;6.70;;;3.55;;
44850;SDS011;30583;48.714;9.386;2023-12-14T04:11:05;4.53;;;3.47;;
44850;SDS011;30583;48.714;9.386;2023-12-14T04:13:31;6.15;;;3.30;;
44850;SDS011;30583;48.714;9.386;2023-12-14T04:15:58;5.07;;;3.78;;
44850;SDS011;30583;48.714;9.386;2023-12-14T04:18:23;6.28;;;4.68;;
44850;SDS011;30583;48.714;9.386;2023-12-14T04:20:49;5.13;;;4.22;;
44850;SDS011;30583;48.714;9.386;2023-12-14T04:23:15;4.53;;;3.53;;
44850;SDS011;30583;48.714;9.386;2023-12-14T04:25:40;4.88;;;3.97;;
44850;SDS011;30583;48.714;9.386;2023-12-14T04:28:06;4.20;;;3.70;;
44850;SDS011;30583;48.714;9.386;2023-12-14T04:30:31;6.53;;;3.67;;
44850;SDS011;30583;48.714;9.386;2023-12-14T04:32:57;5.88;;;3.67;;
44850;SDS011;30583;48.714;9.386;2023-12-14T04:35:22;4.95;;;3.70;;
44850;SDS011;30583;48.714;9.386;2023-12-14T04:37:48;4.72;;;3.65;;
44850;SDS011;30583;48.714;9.386;2023-12-14T04:40:14;6.00;;;4.38;;
44850;SDS011;30583;48.714;9.386;2023-12-14T04:42:39;6.03;;;4.38;;
44850;SDS011;30583;48.714;9.386;2023-12-14T04:45:05;6.15;;;3.92;;
44850;SDS011;30583;48.714;9.386;2023-12-14T04:47:31;5.15;;;3.88;;
44850;SDS011;30583;48.714;9.386;2023-12-14T04:49:57;4.70;;;3.95;;
44850;SDS011;30583;48.714;9.386;2023-12-14T04:52:22;5.93;;;3.80;;
44850;SDS011;30583;48.714;9.386;2023-12-14T04:54:48;5.18;;;4.00;;
44850;SDS011;30583;48.714;9.386;2023-12-14T04:57:14;6.30;;;4.07;;
44850;SDS011;30583;48.714;9.386;2023-12-14T04:59:43;6.53;;;4.55;;
44850;SDS011;30583;48.714;9.386;2023-12-14T05:02:09;5.93;;;4.07;;
44850;SDS011;30583;48.714;9.386;2023-12-14T05:04:34;11.20;;;5.25;;
44850;SDS011;30583;48.714;9.386;2023-12-14T05:07:00;6.07;;;4.20;;
44850;SDS011;30583;48.714;9.386;2023-12-14T05:09:26;8.60;;;5.00;;
44850;SDS011;30583;48.714;9.386;2023-12-14T05:11:51;8.15;;;4.53;;
44850;SDS011;30583;48.714;9.386;2023-12-14T05:14:17;8.15;;;5.15;;
44850;SDS011;30583;48.714;9.386;2023-12-14T05:16:43;7.63;;;4.38;;
44850;SDS011;30583;48.714;9.386;2023-12-14T05:19:09;7.68;;;4.78;;
44850;SDS011;30583;48.714;9.386;2023-12-14T05:21:34;9.65;;;4.75;;
44850;SDS011;30583;48.714;9.386;2023-12-14T05:24:00;9.30;;;4.82;;
44850;SDS011;30583;48.714;9.386;2023-12-14T05:26:25;7.18;;;4.95;;
44850;SDS011;30583;48.714;9.386;2023-12-14T05:28:51;6.18;;;4.35;;
44850;SDS011;30583;48.714;9.386;2023-12-14T05:31:17;6.90;;;4.63;;
44850;SDS011;30583;48.714;9.386;2023-12-14T05:33:43;6.95;;;4.55;;
44850;SDS011;30583;48.714;9.386;2023-12-14T05:36:08;6.00;;;4.60;;
44850;SDS011;30583;48.714;9.386;2023-12-14T05:38:35;7.82;;;4.65;;
44850;SDS011;30583;48.714;9.386;2023-12-14T05:41:04;7.50;;;4.85;;
44850;SDS011;30583;48.714;9.386;2023-12-14T05:43:30;6.85;;;5.00;;
44850;SDS011;30583;48.714;9.386;2023-12-14T05:45:56;7.05;;;5.57;;
44850;SDS011;30583;48.714;9.386;2023-12-14T05:48:22;19.80;;;5.68;;
44850;SDS011;30583;48.714;9.386;2023-12-14T05:50:47;9.73;;;6.00;;
44850;SDS011;30583;48.714;9.386;2023-12-14T05:53:13;7.70;;;5.35;;
44850;SDS011;30583;48.714;9.386;2023-12-14T05:55:39;8.52;;;5.53;;
44850;SDS011;30583;48.714;9.386;2023-12-14T05:58:06;8.57;;;5.40;;
44850;SDS011;30583;48.714;9.386;2023-12-14T06:00:32;8.60;;;5.57;;
44850;SDS011;30583;48.714;9.386;2023-12-14T06:02:59;6.95;;;5.10;;
44850;SDS011;30583;48.714;9.386;2023-12-14T06:05:25;8.98;;;5.90;;
44850;SDS011;30583;48.714;9.386;2023-12-14T06:07:50;9.30;;;5.85;;
44850;SDS011;30583;48.714;9.386;2023-12-14T06:10:16;6.97;;;5.43;;
44850;SDS011;30583;48.714;9.386;2023-12-14T06:12:42;7.90;;;6.03;;
44850;SDS011;30583;48.714;9.386;2023-12-14T06:15:07;16.08;;;9.57;;
44850;SDS011;30583;48.714;9.386;2023-12-14T06:17:33;27.42;;;17.35;;
44850;SDS011;30583;48.714;9.386;2023-12-14T06:19:59;16.92;;;11.02;;
44850;SDS011;30583;48.714;9.386;2023-12-14T06:22:25;12.23;;;7.90;;
44850;SDS011;30583;48.714;9.386;2023-12-14T06:24:51;9.23;;;6.70;;
44850;SDS011;30583;48.714;9.386;2023-12-14T06:27:17;9.57;;;6.63;;
44850;SDS011;30583;48.714;9.386;2023-12-14T06:29:42;11.25;;;6.93;;
44850;SDS011;30583;48.714;9.386;2023-12-14T06:32:08;8.40;;;6.70;;
44850;SDS011;30583;48.714;9.386;2023-12-14T06:34:34;10.60;;;7.07;;
44850;SDS011;30583;48.714;9.386;2023-12-14T06:36:59;10.07;;;6.72;;
44850;SDS011;30583;48.714;9.386;2023-12-14T06:39:26;8.98;;;6.53;;
44850;SDS011;30583;48.714;9.386;2023-12-14T06:41:52;13.63;;;7.50;;
44850;SDS011;30583;48.714;9.386;2023-12-14T06:44:18;10.27;;;7.32;;
44850;SDS011;30583;48.714;9.386;2023-12-14T06:46:44;10.10;;;7.50;;
44850;SDS011;30583;48.714;9.386;2023-12-14T06:49:09;8.90;;;6.57;;
44850;SDS011;30583;48.714;9.386;2023-12-14T06:51:35;12.13;;;7.25;;
44850;SDS011;30583;48.714;9.386;2023-12-14T06:54:01;17.60;;;7.47;;
44850;SDS011;30583;48.714;9.386;2023-12-14T06:56:27;14.48;;;8.23;;
44850;SDS011;30583;48.714;9.386;2023-12-14T06:58:52;68.53;;;26.42;;
44850;SDS011;30583;48.714;9.386;2023-12-14T07:01:18;50.72;;;19.80;;
44850;SDS011;30583;48.714;9.386;2023-12-14T07:03:43;47.85;;;20.20;;
44850;SDS011;30583;48.714;9.386;2023-12-14T07:06:16;30.80;;;13.55;;
44850;SDS011;30583;48.714;9.386;2023-12-14T07:08:43;246.73;;;79.10;;
44850;SDS011;30583;48.714;9.386;2023-12-14T07:11:10;417.15;;;135.90;;
44850;SDS011;30583;48.714;9.386;2023-12-14T07:13:36;542.80;;;202.05;;
44850;SDS011;30583;48.714;9.386;2023-12-14T07:16:06;682.00;;;287.20;;
44850;SDS011;30583;48.714;9.386;2023-12-14T07:18:33;1457.70;;;640.45;;
44850;SDS011;30583;48.714;9.386;2023-12-14T07:21:02;835.15;;;391.73;;
44850;SDS011;30583;48.714;9.386;2023-12-14T07:23:28;394.65;;;158.65;;
44850;SDS011;30583;48.714;9.386;2023-12-14T07:25:54;169.13;;;69.57;;
44850;SDS011;30583;48.714;9.386;2023-12-14T07:28:20;42.80;;;20.88;;
44850;SDS011;30583;48.714;9.386;2023-12-14T07:30:46;72.95;;;32.70;;
44850;SDS011;30583;48.714;9.386;2023-12-14T07:33:12;194.40;;;83.57;;
44850;SDS011;30583;48.714;9.386;2023-12-14T07:35:38;184.57;;;82.28;;
44850;SDS011;30583;48.714;9.386;2023-12-14T07:38:03;103.93;;;47.75;;
44850;SDS011;30583;48.714;9.386;2023-12-14T07:40:29;101.03;;;48.05;;
44850;SDS011;30583;48.714;9.386;2023-12-14T07:42:54;27.35;;;14.88;;
44850;SDS011;30583;48.714;9.386;2023-12-14T07:45:20;36.30;;;19.70;;
44850;SDS011;30583;48.714;9.386;2023-12-14T07:47:45;42.22;;;26.70;;
44850;SDS011;30583;48.714;9.386;2023-12-14T07:50:11;11.95;;;8.25;;
44850;SDS011;30583;48.714;9.386;2023-12-14T07:52:38;9.73;;;6.80;;
44850;SDS011;30583;48.714;9.386;2023-12-14T07:55:04;22.75;;;19.77;;
44850;SDS011;30583;48.714;9.386;2023-12-14T07:57:30;12.27;;;8.93;;
44850;SDS011;30583;48.714;9.386;2023-12-14T07:59:56;10.95;;;7.35;;
44850;SDS011;30583;48.714;9.386;2023-12-14T08:02:22;11.07;;;8.10;;
44850;SDS011;30583;48.714;9.386;2023-12-14T08:04:48;15.73;;;11.60;;
44850;SDS011;30583;48.714;9.386;2023-12-14T08:07:13;12.95;;;11.48;;
44850;SDS011;30583;48.714;9.386;2023-12-14T08:09:39;17.55;;;10.93;;
44850;SDS011;30583;48.714;9.386;2023-12-14T08:12:05;17.63;;;10.65;;
44850;SDS011;30583;48.714;9.386;2023-12-14T08:14:34;18.40;;;9.60;;
44850;SDS011;30583;48.714;9.386;2023-12-14T08:17:00;15.68;;;8.88;;
44850;SDS011;30583;48.714;9.386;2023-12-14T08:19:26;13.35;;;6.90;;
44850;SDS011;30583;48.714;9.386;2023-12-14T08:21:52;11.10;;;7.28;;
44850;SDS011;30583;48.714;9.386;2023-12-14T08:24:18;11.60;;;6.95;;
44850;SDS011;30583;48.714;9.386;2023-12-14T08:26:43;11.38;;;6.88;;
44850;SDS011;30583;48.714;9.386;2023-12-14T08:29:09;10.10;;;6.07;;
44850;SDS011;30583;48.714;9.386;2023-12-14T08:31:34;9.23;;;5.40;;
44850;SDS011;30583;48.714;9.386;2023-12-14T08:34:00;7.28;;;5.38;;
44850;SDS011;30583;48.714;9.386;2023-12-14T08:36:26;9.95;;;5.70;;
44850;SDS011;30583;48.714;9.386;2023-12-14T08:38:51;8.25;;;5.65;;
44850;SDS011;30583;48.714;9.386;2023-12-14T08:41:17;9.45;;;5.38;;
44850;SDS011;30583;48.714;9.386;2023-12-14T08:43:42;11.10;;;6.55;;
44850;SDS011;30583;48.714;9.386;2023-12-14T08:46:08;13.70;;;7.45;;
44850;SDS011;30583;48.714;9.386;2023-12-14T08:48:35;11.88;;;6.82;;
44850;SDS011;30583;48.714;9.386;2023-12-14T08:51:00;14.48;;;7.22;;
44850;SDS011;30583;48.714;9.386;2023-12-14T08:53:26;10.32;;;6.00;;
44850;SDS011;30583;48.714;9.386;2023-12-14T08:55:52;14.35;;;6.30;;
44850;SDS011;30583;48.714;9.386;2023-12-14T08:58:18;7.85;;;4.95;;
44850;SDS011;30583;48.714;9.386;2023-12-14T09:00:44;8.85;;;5.38;;
44850;SDS011;30583;48.714;9.386;2023-12-14T09:03:09;9.38;;;5.53;;
44850;SDS011;30583;48.714;9.386;2023-12-14T09:05:35;10.55;;;5.70;;
44850;SDS011;30583;48.714;9.386;2023-12-14T09:08:01;7.75;;;4.95;;
44850;SDS011;30583;48.714;9.386;2023-12-14T09:10:27;8.02;;;5.30;;
44850;SDS011;30583;48.714;9.386;2023-12-14T09:12:53;12.43;;;5.63;;
44850;SDS011;30583;48.714;9.386;2023-12-14T09:15:19;7.82;;;4.85;;
44850;SDS011;30583;48.714;9.386;2023-12-14T09:17:44;7.07;;;5.45;;
44850;SDS011;30583;48.714;9.386;2023-12-14T09:20:10;12.02;;;5.95;;
44850;SDS011;30583;48.714;9.386;2023-12-14T09:22:36;9.88;;;5.07;;
44850;SDS011;30583;48.714;9.386;2023-12-14T09:25:02;8.10;;;4.80;;
44850;SDS011;30583;48.714;9.386;2023-12-14T09:27:28;11.95;;;6.53;;
44850;SDS011;30583;48.714;9.386;2023-12-14T09:29:54;8.45;;;6.00;;
44850;SDS011;30583;48.714;9.386;2023-12-14T09:32:20;8.32;;;5.72;;
44850;SDS011;30583;48.714;9.386;2023-12-14T09:34:46;8.38;;;4.93;;
44850;SDS011;30583;48.714;9.386;2023-12-14T09:37:11;7.80;;;5.60;;
44850;SDS011;30583;48.714;9.386;2023-12-14T09:39:39;19.48;;;8.10;;
44850;SDS011;30583;48.714;9.386;2023-12-14T09:42:05;10.13;;;5.90;;
44850;SDS011;30583;48.714;9.386;2023-12-14T09:44:33;9.57;;;5.30;;
44850;SDS011;30583;48.714;9.386;2023-12-14T09:47:02;7.60;;;5.65;;
44850;SDS011;30583;48.714;9.386;2023-12-14T09:49:28;9.48;;;4.80;;
44850;SDS011;30583;48.714;9.386;2023-12-14T09:51:58;8.07;;;4.88;;
44850;SDS011;30583;48.714;9.386;2023-12-14T09:54:24;11.05;;;5.35;;
44850;SDS011;30583;48.714;9.386;2023-12-14T09:56:51;8.25;;;5.25;;
44850;SDS011;30583;48.714;9.386;2023-12-14T09:59:18;6.72;;;4.82;;
44850;SDS011;30583;48.714;9.386;2023-12-14T10:01:44;6.68;;;4.68;;
44850;SDS011;30583;48.714;9.386;2023-12-14T10:06:36;7.93;;;2.53;;
44850;SDS011;30583;48.714;9.386;2023-12-14T10:09:06;5.50;;;2.88;;
44850;SDS011;30583;48.714;9.386;2023-12-14T10:11:38;6.03;;;3.20;;
44850;SDS011;30583;48.714;9.386;2023-12-14T10:14:23;6.28;;;3.67;;
44850;SDS011;30583;48.714;9.386;2023-12-14T10:16:50;5.97;;;3.70;;
44850;SDS011;30583;48.714;9.386;2023-12-14T10:19:19;5.88;;;4.10;;
44850;SDS011;30583;48.714;9.386;2023-12-14T10:21:46;6.78;;;3.22;;
44850;SDS011;30583;48.714;9.386;2023-12-14T10:24:13;6.57;;;3.40;;
44850;SDS011;30583;48.714;9.386;2023-12-14T10:26:39;7.68;;;4.05;;
44850;SDS011;30583;48.714;9.386;2023-12-14T10:29:05;5.82;;;4.13;;
44850;SDS011;30583;48.714;9.386;2023-12-14T10:31:31;7.82;;;4.50;;
44850;SDS011;30583;48.714;9.386;2023-12-14T10:34:02;7.82;;;4.50;;
44850;SDS011;30583;48.714;9.386;2023-12-14T10:36:28;6.13;;;4.88;;
44850;SDS011;30583;48.714;9.386;2023-12-14T10:38:56;6.68;;;5.00;;
44850;SDS011;30583;48.714;9.386;2023-12-14T10:41:23;7.85;;;5.15;;
44850;SDS011;30583;48.714;9.386;2023-12-14T10:43:58;9.98;;;5.30;;
44850;SDS011;30583;48.714;9.386;2023-12-14T10:46:26;7.32;;;4.55;;
44850;SDS011;30583;48.714;9.386;2023-12-14T10:48:52;7.30;;;4.70;;
44850;SDS011;30583;48.714;9.386;2023-12-14T10:51:20;6.72;;;4.70;;
44850;SDS011;30583;48.714;9.386;2023-12-14T10:53:46;7.85;;;4.68;;
44850;SDS011;30583;48.714;9.386;2023-12-14T10:56:14;10.10;;;6.25;;
44850;SDS011;30583;48.714;9.386;2023-12-14T10:58:48;9.07;;;5.97;;
44850;SDS011;30583;48.714;9.386;2023-12-14T11:01:19;7.38;;;5.57;;
44850;SDS011;30583;48.714;9.386;2023-12-14T11:03:45;8.95;;;5.10;;
44850;SDS011;30583;48.714;9.386;2023-12-14T11:06:31;10.10;;;6.15;;
44850;SDS011;30583;48.714;9.386;2023-12-14T11:09:03;11.75;;;5.85;;
44850;SDS011;30583;48.714;9.386;2023-12-14T11:12:19;7.72;;;5.20;;
44850;SDS011;30583;48.714;9.386;2023-12-14T11:14:25;12.23;;;5.85;;
44850;SDS011;30583;48.714;9.386;2023-12-14T11:16:54;9.45;;;6.07;;
44850;SDS011;30583;48.714;9.386;2023-12-14T11:19:30;9.98;;;5.97;;
44850;SDS011;30583;48.714;9.386;2023-12-14T11:24:36;12.25;;;6.40;;
44850;SDS011;30583;48.714;9.386;2023-12-14T11:27:08;8.95;;;6.10;;
44850;SDS011;30583;48.714;9.386;2023-12-14T11:29:37;12.02;;;6.97;;
44850;SDS011;30583;48.714;9.386;2023-12-14T11:32:05;10.05;;;6.75;;
44850;SDS011;30583;48.714;9.386;2023-12-14T11:34:31;8.95;;;6.70;;
44850;SDS011;30583;48.714;9.386;2023-12-14T11:36:57;9.07;;;6.35;;
44850;SDS011;30583;48.714;9.386;2023-12-14T11:39:23;21.48;;;9.57;;
44850;SDS011;30583;48.714;9.386;2023-12-14T11:42:02;11.20;;;7.03;;
44850;SDS011;30583;48.714;9.386;2023-12-14T11:44:28;10.93;;;6.40;;
44850;SDS011;30583;48.714;9.386;2023-12-14T11:46:55;11.05;;;6.68;;
44850;SDS011;30583;48.714;9.386;2023-12-14T11:49:23;10.40;;;6.95;;
44850;SDS011;30583;48.714;9.386;2023-12-14T11:51:51;11.70;;;7.65;;
44850;SDS011;30583;48.714;9.386;2023-12-14T11:54:20;8.80;;;6.07;;
44850;SDS011;30583;48.714;9.386;2023-12-14T11:56:46;9.50;;;6.38;;
44850;SDS011;30583;48.714;9.386;2023-12-14T11:59:14;10.27;;;6.82;;
44850;SDS011;30583;48.714;9.386;2023-12-14T12:04:24;8.23;;;6.15;;
44850;SDS011;30583;48.714;9.386;2023-12-14T12:06:58;8.68;;;5.85;;
44850;SDS011;30583;48.714;9.386;2023-12-14T12:09:41;8.15;;;6.38;;
44850;SDS011;30583;48.714;9.386;2023-12-14T12:12:11;10.73;;;6.30;;
44850;SDS011;30583;48.714;9.386;2023-12-14T12:14:38;7.88;;;4.78;;
44850;SDS011;30583;48.714;9.386;2023-12-14T12:17:05;8.10;;;4.68;;
44850;SDS011;30583;48.714;9.386;2023-12-14T12:19:32;11.60;;;7.30;;
44850;SDS011;30583;48.714;9.386;2023-12-14T12:21:58;9.10;;;6.20;;
44850;SDS011;30583;48.714;9.386;2023-12-14T12:24:23;14.32;;;6.72;;
44850;SDS011;30583;48.714;9.386;2023-12-14T12:26:49;9.18;;;4.90;;
44850;SDS011;30583;48.714;9.386;2023-12-14T12:29:15;9.45;;;5.28;;
44850;SDS011;30583;48.714;9.386;2023-12-14T12:31:41;10.70;;;5.43;;
44850;SDS011;30583;48.714;9.386;2023-12-14T12:34:07;11.77;;;5.28;;
44850;SDS011;30583;48.714;9.386;2023-12-14T12:36:33;6.65;;;3.97;;
44850;SDS011;30583;48.714;9.386;2023-12-14T12:38:59;11.15;;;4.75;;
44850;SDS011;30583;48.714;9.386;2023-12-14T12:41:24;8.93;;;5.72;;
44850;SDS011;30583;48.714;9.386;2023-12-14T12:43:50;8.60;;;4.88;;
44850;SDS011;30583;48.714;9.386;2023-12-14T12:46:15;7.80;;;4.57;;
44850;SDS011;30583;48.714;9.386;2023-12-14T12:48:41;11.93;;;5.20;;
44850;SDS011;30583;48.714;9.386;2023-12-14T12:51:06;7.25;;;3.50;;
44850;SDS011;30583;48.714;9.386;2023-12-14T12:53:32;12.05;;;6.15;;
44850;SDS011;30583;48.714;9.386;2023-12-14T12:55:58;7.97;;;4.82;;
44850;SDS011;30583;48.714;9.386;2023-12-14T12:58:24;6.22;;;3.17;;
44850;SDS011;30583;48.714;9.386;2023-12-14T13:00:49;6.00;;;2.70;;
44850;SDS011;30583;48.714;9.386;2023-12-14T13:03:15;6.30;;;2.78;;
44850;SDS011;30583;48.714;9.386;2023-12-14T13:05:40;5.70;;;2.85;;
44850;SDS011;30583;48.714;9.386;2023-12-14T13:08:08;5.28;;;2.58;;
44850;SDS011;30583;48.714;9.386;2023-12-14T13:10:33;7.88;;;3.17;;
44850;SDS011;30583;48.714;9.386;2023-12-14T13:12:59;7.90;;;3.33;;
44850;SDS011;30583;48.714;9.386;2023-12-14T13:15:25;21.52;;;14.00;;
44850;SDS011;30583;48.714;9.386;2023-12-14T13:17:51;10.77;;;5.40;;
44850;SDS011;30583;48.714;9.386;2023-12-14T13:20:17;6.72;;;3.53;;
44850;SDS011;30583;48.714;9.386;2023-12-14T13:22:44;6.10;;;3.03;;
44850;SDS011;30583;48.714;9.386;2023-12-14T13:25:10;6.07;;;3.10;;
44850;SDS011;30583;48.714;9.386;2023-12-14T13:27:35;11.10;;;7.00;;
44850;SDS011;30583;48.714;9.386;2023-12-14T13:30:01;12.00;;;8.18;;
44850;SDS011;30583;48.714;9.386;2023-12-14T13:32:28;4.72;;;2.97;;
44850;SDS011;30583;48.714;9.386;2023-12-14T13:34:53;5.40;;;3.85;;
44850;SDS011;30583;48.714;9.386;2023-12-14T13:37:19;5.55;;;3.15;;
44850;SDS011;30583;48.714;9.386;2023-12-14T13:39:44;7.55;;;3.60;;
44850;SDS011;30583;48.714;9.386;2023-12-14T13:42:10;5.45;;;2.90;;
44850;SDS011;30583;48.714;9.386;2023-12-14T13:44:36;7.00;;;3.03;;
44850;SDS011;30583;48.714;9.386;2023-12-14T13:47:03;6.65;;;3.40;;
44850;SDS011;30583;48.714;9.386;2023-12-14T13:49:29;6.05;;;2.97;;
44850;SDS011;30583;48.714;9.386;2023-12-14T13:51:54;5.53;;;2.70;;
44850;SDS011;30583;48.714;9.386;2023-12-14T13:54:20;7.32;;;4.00;;
44850;SDS011;30583;48.714;9.386;2023-12-14T13:56:45;11.23;;;6.00;;
44850;SDS011;30583;48.714;9.386;2023-12-14T13:59:11;6.15;;;3.25;;
44850;SDS011;30583;48.714;9.386;2023-12-14T14:01:36;4.45;;;2.53;;
44850;SDS011;30583;48.714;9.386;2023-12-14T14:04:02;4.95;;;2.50;;
44850;SDS011;30583;48.714;9.386;2023-12-14T14:06:28;5.78;;;2.85;;
44850;SDS011;30583;48.714;9.386;2023-12-14T14:08:54;4.13;;;2.53;;
44850;SDS011;30583;48.714;9.386;2023-12-14T14:11:20;4.75;;;2.30;;
44850;SDS011;30583;48.714;9.386;2023-12-14T14:13:47;6.43;;;2.33;;
44850;SDS011;30583;48.714;9.386;2023-12-14T14:16:13;6.32;;;3.80;;
44850;SDS011;30583;48.714;9.386;2023-12-14T14:18:38;6.93;;;3.85;;
44850;SDS011;30583;48.714;9.386;2023-12-14T14:21:04;7.88;;;3.55;;
44850;SDS011;30583;48.714;9.386;2023-12-14T14:23:33;8.15;;;3.38;;
44850;SDS011;30583;48.714;9.386;2023-12-14T14:25:59;11.02;;;6.13;;
44850;SDS011;30583;48.714;9.386;2023-12-14T14:28:25;17.25;;;8.65;;
44850;SDS011;30583;48.714;9.386;2023-12-14T14:30:50;12.57;;;6.53;;
44850;SDS011;30583;48.714;9.386;2023-12-14T14:33:16;20.88;;;13.52;;
44850;SDS011;30583;48.714;9.386;2023-12-14T14:35:45;13.88;;;8.75;;
44850;SDS011;30583;48.714;9.386;2023-12-14T14:38:14;7.80;;;3.03;;
44850;SDS011;30583;48.714;9.386;2023-12-14T14:40:40;5.22;;;2.63;;
44850;SDS011;30583;48.714;9.386;2023-12-14T14:43:07;5.25;;;2.78;;
44850;SDS011;30583;48.714;9.386;2023-12-14T14:45:34;4.47;;;2.72;;